STAZIONE METEO DI BARCELLONA P.G. CENTRO
Dati campionati ogni minuto da Consolle Davis Vantage Pro 2
ed inviati alla rete mediante server Anemos WDS5 wview



Barcellona P.G. Ovest  Barcellona P.G. Ovest


Golfo di Patti  Golfo di Patti


Thunder radar more information blitzortung!


Rain radar  rain snow radar



Notice: Undefined offset: 0 in /web/htdocs/www.barcellonameteo.it/home/weather28/wsSideColom.php on line 200

altri nostri siti meteo:

Rete NOAA MADIS

Italia Meteo Network

Pomeziameteo

Varazze Meteo



Nessuna attenzione particolare richiesta.    Non ci sono allerte meteo

Report METAR

   
LICF - Barcellona Pozzo di Gotto
Dati ricevuti: 24-11-2017 18:55
Sereno  
Sereno  
   Vento: NO 11.1 km/h
Vento: NO 11.1 km/h
Temperatura: 15°C
P.to Rugiada: 10°C
Umidità: 72%
Barometro: 1022 hPa
Visibilità: oltre 10 km
dettagli cloud: Sereno
LICF 241755Z 31006KT CAVOK 15/10 Q1022 RMK FEW FEW200 QUK / QUL / VIS MAR 25 KM MON INVIS NC VIS MIN 9999
LICC - Catania
Dati ricevuti: 24-11-2017 19:20
Sereno  
Sereno  
   Vento: Variabile 1.9 km/h
Vento: Variabile 1.9 km/h
Temperatura: 12°C
P.to Rugiada: 10°C
Umidità: 88%
Barometro: 1022 hPa
Visibilità: oltre 10 km
dettagli cloud: Sereno
LICC 241820Z VRB01KT CAVOK 12/10 Q1022
LICJ - Palermo
Dati ricevuti: 24-11-2017 19:20
Sereno  
Sereno  
   Vento: S 5.6 km/h
Vento: S 5.6 km/h
Temperatura: 14°C
P.to Rugiada: 10°C
Umidità: 77%
Barometro: 1022 hPa
Visibilità: oltre 10 km
dettagli cloud: Sereno
LICJ 241820Z 15003KT CAVOK 14/10 Q1022
LICF - Messina
Dati ricevuti: 24-11-2017 18:55
Sereno  
Sereno  
   Vento: NO 11.1 km/h
Vento: NO 11.1 km/h
Temperatura: 15°C
P.to Rugiada: 10°C
Umidità: 72%
Barometro: 1022 hPa
Visibilità: oltre 10 km
dettagli cloud: Sereno
LICF 241755Z 31006KT CAVOK 15/10 Q1022 RMK FEW FEW200 QUK / QUL / VIS MAR 25 KM MON INVIS NC VIS MIN 9999
LICC - Milazzo
Dati ricevuti: 24-11-2017 19:20
Sereno  
Sereno  
   Vento: Variabile 1.9 km/h
Vento: Variabile 1.9 km/h
Temperatura: 12°C
P.to Rugiada: 10°C
Umidità: 88%
Barometro: 1022 hPa
Visibilità: oltre 10 km
dettagli cloud: Sereno
LICC 241820Z VRB01KT CAVOK 12/10 Q1022
LICC - Terme Vigliatore
Dati ricevuti: 24-11-2017 19:20
Sereno  
Sereno  
   Vento: Variabile 1.9 km/h
Vento: Variabile 1.9 km/h
Temperatura: 12°C
P.to Rugiada: 10°C
Umidità: 88%
Barometro: 1022 hPa
Visibilità: oltre 10 km
dettagli cloud: Sereno
LICC 241820Z VRB01KT CAVOK 12/10 Q1022
LICT - Trapani
Dati ricevuti: 24-11-2017 18:55
Poche nuvole  
Poche nuvole  
   Vento: NE 3.7 km/h
Vento: NE 3.7 km/h
Temperatura: 14°C
P.to Rugiada: 13°C
Umidità: 94%
Barometro: 1022 hPa
Nuvole: Poche nuvole
Visibilità: oltre 10 km
dettagli cloud: Poche nuvole 762 m
LICT 241755Z 07002KT 9999 FEW025 14/13 Q1022
  

Script sviluppato da  Saratoga-weather.org Adattato per il modello da  Weerstation Leuven

Potete trovare le nostre info meteo anche a:

European Weather Network

Weather Underground

AWEKAS

Citizen Weather Observer Program (CWOP)

HAMweather, WeatherForYou, PWS Weather

Strumentazione usata:

Stazione meteo
Davis VP2

Programma gestore dati meteo
WVIEW

Server per i dati meteo
WDS5 Ecoblack

Davis VP2

WVIEW

WDS5 Ecoblack